Time;durP1;ratioP1;P1;durP2;ratioP2;P2;SDS_P1;SDS_P2;PMS_P1;PMS_P2;Temp;Humidity;BMP_temperature;BMP_pressure;BME280_temperature;BME280_humidity;BME280_pressure;Samples;Min_cycle;Max_cycle;Signal;HPM_P1;HPM_P2
2021/12/23 00:00:14;;;;;;;50.75;23.38;;;;;;;-2.23;86.45;101553.34;5112642;27;20104;-51
2021/12/23 00:02:43;;;;;;;33.50;15.65;;;;;;;-2.25;86.88;101554.06;5115211;27;20047;-53
2021/12/23 00:05:11;;;;;;;36.55;17.00;;;;;;;-2.24;86.97;101543.09;5113306;27;20047;-49
2021/12/23 00:07:38;;;;;;;35.22;17.08;;;;;;;-2.23;86.70;101543.19;5120007;27;20424;-51
2021/12/23 00:10:08;;;;;;;39.33;18.95;;;;;;;-2.26;86.69;101537.06;5117093;27;20143;-51
2021/12/23 00:12:38;;;;;;;35.10;15.90;;;;;;;-2.26;86.71;101534.53;5121734;27;20047;-49
2021/12/23 00:15:09;;;;;;;35.95;15.60;;;;;;;-2.26;86.97;101537.06;5117926;27;20039;-51
2021/12/23 00:26:04;;;;;;;36.47;16.05;;;;;;;-2.25;87.01;101524.44;5100554;28;20059;-48
2021/12/23 00:28:32;;;;;;;36.28;16.40;;;;;;;-2.21;87.23;101530.56;5112924;27;20419;-50
2021/12/23 00:31:00;;;;;;;35.47;16.08;;;;;;;-2.18;87.07;101525.66;5111770;27;20062;-50
2021/12/23 00:33:28;;;;;;;41.35;19.45;;;;;;;-2.14;87.25;101527.59;5112374;27;20051;-51
2021/12/23 00:35:58;;;;;;;51.38;20.40;;;;;;;-2.10;87.10;101518.47;5118742;27;20047;-49
2021/12/23 00:38:29;;;;;;;55.05;20.88;;;;;;;-2.07;87.26;101522.06;5124672;27;20043;-50
2021/12/23 00:40:57;;;;;;;67.85;25.02;;;;;;;-2.02;87.00;101518.13;5113670;28;20051;-50
2021/12/23 00:43:25;;;;;;;72.35;25.25;;;;;;;-2.01;86.83;101514.78;5115760;28;20047;-51
2021/12/23 00:45:52;;;;;;;60.25;23.63;;;;;;;-1.97;86.83;101518.38;5119109;28;20048;-50
2021/12/23 00:48:20;;;;;;;51.38;19.40;;;;;;;-1.98;86.77;101507.31;5111159;28;20051;-50
2021/12/23 00:50:47;;;;;;;46.42;19.40;;;;;;;-1.95;87.00;101504.06;5112915;28;20043;-50
2021/12/23 00:53:19;;;;;;;53.97;22.25;;;;;;;-1.93;86.51;101498.28;5113245;28;20066;-50
2021/12/23 00:55:49;;;;;;;46.83;19.55;;;;;;;-1.92;86.64;101494.94;5117501;28;20747;-52
2021/12/23 00:58:16;;;;;;;41.42;17.67;;;;;;;-1.94;85.81;101496.53;5112872;28;20047;-50
2021/12/23 01:00:44;;;;;;;48.33;23.13;;;;;;;-1.95;86.08;101489.72;5117056;28;20047;-49
2021/12/23 01:03:12;;;;;;;40.10;18.58;;;;;;;-1.94;85.88;101494.00;5116934;28;20058;-52
2021/12/23 01:05:40;;;;;;;40.60;18.38;;;;;;;-1.93;86.02;101493.22;5119029;28;20050;-50
2021/12/23 01:08:07;;;;;;;39.10;16.77;;;;;;;-1.92;86.38;101483.91;5118612;27;20054;-51
2021/12/23 01:10:36;;;;;;;56.22;26.73;;;;;;;-1.93;85.79;101488.13;5112693;28;20495;-49
2021/12/23 01:13:05;;;;;;;39.67;19.30;;;;;;;-1.93;85.97;101483.03;5112453;27;20039;-52
2021/12/23 01:15:57;;;;;;;35.72;16.90;;;;;;;-1.92;86.08;101483.91;5118989;28;20051;-49
2021/12/23 01:18:25;;;;;;;32.65;15.48;;;;;;;-1.97;85.84;101475.16;5115867;28;20809;-51
2021/12/23 01:20:52;;;;;;;38.38;18.77;;;;;;;-1.97;85.59;101470.09;5116034;28;20043;-49
2021/12/23 01:23:22;;;;;;;31.83;15.70;;;;;;;-2.00;85.88;101460.63;5113413;28;20130;-49
2021/12/23 01:25:52;;;;;;;40.10;18.83;;;;;;;-2.00;85.83;101458.09;5112569;28;20484;-49
2021/12/23 01:28:20;;;;;;;35.70;16.58;;;;;;;-1.98;85.99;101455.63;5113228;28;20048;-49
2021/12/23 01:30:48;;;;;;;27.45;13.68;;;;;;;-1.95;85.62;101454.13;5115331;28;20075;-54
2021/12/23 01:33:16;;;;;;;34.47;14.77;;;;;;;-1.95;85.72;101438.88;5115872;28;20058;-53
2021/12/23 01:35:44;;;;;;;32.75;14.90;;;;;;;-1.95;85.61;101440.56;5118965;27;20043;-51
2021/12/23 01:38:11;;;;;;;27.38;13.35;;;;;;;-1.96;85.53;101441.34;5120933;27;20076;-50
2021/12/23 01:40:39;;;;;;;30.65;15.18;;;;;;;-1.96;85.71;101442.22;5116011;27;20046;-51
2021/12/23 01:43:07;;;;;;;33.28;15.82;;;;;;;-1.99;85.44;101426.81;5123897;27;20937;-53
2021/12/23 01:45:36;;;;;;;33.63;15.75;;;;;;;-1.96;85.86;101433.72;5114727;27;20461;-51
2021/12/23 01:48:04;;;;;;;32.00;15.77;;;;;;;-1.96;85.84;101432.06;5116410;27;20051;-52
2021/12/23 01:50:34;;;;;;;34.55;15.52;;;;;;;-1.97;85.72;101425.22;5119522;27;20099;-50
2021/12/23 01:53:02;;;;;;;34.03;15.90;;;;;;;-1.97;86.06;101422.69;5120782;27;20416;-53
2021/12/23 01:55:29;;;;;;;32.97;14.52;;;;;;;-1.95;85.76;101426.19;5121094;27;20050;-52
2021/12/23 01:57:58;;;;;;;31.10;14.70;;;;;;;-1.94;85.82;101420.31;5119967;27;20051;-54
2021/12/23 02:00:28;;;;;;;31.63;13.77;;;;;;;-1.93;85.68;101416.97;5126186;27;20055;-53
2021/12/23 02:02:56;;;;;;;37.08;15.40;;;;;;;-1.92;85.71;101413.63;5119467;27;20042;-51
2021/12/23 02:05:24;;;;;;;28.63;14.60;;;;;;;-1.93;85.49;101406.81;5116927;27;20036;-50
2021/12/23 02:07:52;;;;;;;51.35;22.73;;;;;;;-1.93;85.67;101408.47;5122468;27;20372;-54
2021/12/23 02:10:22;;;;;;;62.03;27.48;;;;;;;-1.94;85.72;101402.53;5115715;27;20047;-51
2021/12/23 02:12:50;;;;;;;42.10;20.48;;;;;;;-1.94;85.71;101394.91;5117332;27;20055;-52
2021/12/23 02:15:19;;;;;;;66.40;31.67;;;;;;;-1.96;85.46;101386.31;5115587;27;20054;-53
2021/12/23 02:17:49;;;;;;;47.45;21.50;;;;;;;-1.97;85.38;101386.25;5114571;27;20047;-50
2021/12/23 02:20:19;;;;;;;44.22;20.88;;;;;;;-1.98;85.90;101385.38;5118632;27;20412;-51
2021/12/23 02:22:47;;;;;;;48.90;23.40;;;;;;;-2.01;85.78;101377.59;5115231;27;20039;-51
2021/12/23 02:25:15;;;;;;;64.75;28.23;;;;;;;-2.03;85.51;101370.69;5114395;27;20098;-51
2021/12/23 02:27:43;;;;;;;79.95;34.72;;;;;;;-2.03;86.10;101371.56;5116244;27;20054;-53
2021/12/23 02:30:13;;;;;;;44.85;20.77;;;;;;;-2.05;85.73;101365.53;5117896;27;20039;-51
2021/12/23 02:32:40;;;;;;;61.58;27.33;;;;;;;-2.08;85.58;101360.28;5120767;27;20055;-51
2021/12/23 02:35:12;;;;;;;76.63;34.55;;;;;;;-2.11;85.93;101357.56;5115849;27;20120;-52
2021/12/23 02:37:42;;;;;;;45.25;22.10;;;;;;;-2.11;86.14;101355.00;5117012;27;20108;-50
2021/12/23 02:40:11;;;;;;;47.10;19.95;;;;;;;-2.11;85.98;101349.94;5119423;27;20053;-53
2021/12/23 02:42:39;;;;;;;56.97;26.90;;;;;;;-2.13;86.40;101348.97;5113686;27;20047;-53
2021/12/23 02:45:09;;;;;;;65.93;30.20;;;;;;;-2.16;86.20;101345.41;5114264;27;20464;-54
2021/12/23 02:47:38;;;;;;;61.55;27.65;;;;;;;-2.19;86.32;101340.16;5112694;27;20128;-51
2021/12/23 02:50:07;;;;;;;51.00;24.23;;;;;;;-2.23;85.85;101339.13;5115171;27;20075;-51
2021/12/23 02:52:36;;;;;;;40.35;21.75;;;;;;;-2.25;86.33;101331.44;5117683;27;20048;-51
2021/12/23 02:55:06;;;;;;;54.47;24.75;;;;;;;-2.27;86.56;101324.53;5114413;27;20052;-51
2021/12/23 02:57:34;;;;;;;44.85;21.42;;;;;;;-2.29;86.16;101319.38;5116028;27;20041;-51
2021/12/23 03:00:02;;;;;;;45.13;21.58;;;;;;;-2.30;86.11;101317.63;5114870;27;20571;-53
2021/12/23 03:02:29;;;;;;;47.47;21.38;;;;;;;-2.32;86.04;101313.25;5113919;27;20051;-50
2021/12/23 03:04:56;;;;;;;46.97;19.70;;;;;;;-2.35;86.48;101308.03;5118781;27;20051;-51
2021/12/23 03:07:23;;;;;;;44.72;21.13;;;;;;;-2.36;86.14;101303.72;5113202;27;20039;-51
2021/12/23 03:09:50;;;;;;;44.22;20.75;;;;;;;-2.39;86.28;101306.13;5120905;27;20039;-50
2021/12/23 03:12:19;;;;;;;44.55;22.02;;;;;;;-2.40;86.34;101299.28;5121128;27;20058;-53
2021/12/23 03:14:46;;;;;;;37.10;18.17;;;;;;;-2.41;86.53;101297.53;5115465;27;20074;-52
2021/12/23 03:17:13;;;;;;;44.17;21.08;;;;;;;-2.42;86.54;101293.25;5115522;27;20605;-51
2021/12/23 03:19:41;;;;;;;47.30;20.63;;;;;;;-2.44;85.98;101277.06;5115700;27;20061;-52
2021/12/23 03:22:08;;;;;;;61.20;26.65;;;;;;;-2.46;86.58;101283.72;5116113;27;20043;-51
2021/12/23 03:24:35;;;;;;;52.97;24.92;;;;;;;-2.47;86.03;101279.44;5118611;27;20081;-50
2021/12/23 03:27:02;;;;;;;55.55;25.90;;;;;;;-2.47;86.36;101282.88;5113458;27;20776;-50
2021/12/23 03:29:31;;;;;;;49.53;22.00;;;;;;;-2.47;86.64;101271.84;5112705;27;20863;-50
2021/12/23 03:31:58;;;;;;;60.78;27.55;;;;;;;-2.47;86.72;101270.16;5113569;27;20096;-55
2021/12/23 03:34:25;;;;;;;108.70;41.75;;;;;;;-2.47;86.02;101262.56;5114997;27;20062;-52
2021/12/23 03:36:52;;;;;;;116.38;47.10;;;;;;;-2.46;86.09;101258.34;5113940;27;20792;-51
2021/12/23 03:39:20;;;;;;;74.97;31.40;;;;;;;-2.48;86.23;101252.31;5113222;27;20054;-50
2021/12/23 03:41:47;;;;;;;134.98;52.00;;;;;;;-2.48;85.77;101260.81;5115110;27;20071;-54
2021/12/23 03:44:15;;;;;;;84.22;35.00;;;;;;;-2.49;86.17;101251.44;5118022;27;20105;-51
2021/12/23 03:46:44;;;;;;;130.13;49.85;;;;;;;-2.49;85.85;101251.44;5121357;27;20043;-51
2021/12/23 03:49:11;;;;;;;92.28;35.08;;;;;;;-2.53;85.89;101241.06;5119284;27;20051;-51
2021/12/23 03:51:39;;;;;;;117.10;45.47;;;;;;;-2.55;85.76;101239.31;5113675;27;20063;-54
2021/12/23 03:54:06;;;;;;;126.00;47.30;;;;;;;-2.56;85.78;101237.56;5115115;27;20051;-51
2021/12/23 03:56:34;;;;;;;136.80;49.05;;;;;;;-2.59;85.69;101231.47;5113683;27;20096;-51
2021/12/23 03:59:01;;;;;;;82.40;33.05;;;;;;;-2.60;86.20;101233.13;5114794;27;20063;-51
2021/12/23 04:01:30;;;;;;;141.02;51.08;;;;;;;-2.61;85.56;101231.34;5122993;27;20074;-52
2021/12/23 04:03:58;;;;;;;72.18;28.95;;;;;;;-2.62;85.65;101229.59;5117923;27;20069;-52
2021/12/23 04:06:26;;;;;;;151.63;51.53;;;;;;;-2.63;85.89;101227.84;5119124;27;20051;-52
2021/12/23 04:08:54;;;;;;;200.13;66.03;;;;;;;-2.64;85.86;101228.66;5115367;27;20065;-54
2021/12/23 04:11:21;;;;;;;141.65;50.85;;;;;;;-2.64;86.21;101233.72;5118617;27;20051;-51
2021/12/23 04:13:49;;;;;;;87.22;32.13;;;;;;;-2.66;85.69;101226.81;5112985;27;20452;-54
2021/12/23 04:16:16;;;;;;;137.80;48.15;;;;;;;-2.67;85.71;101218.34;5111890;27;20058;-55
2021/12/23 04:18:46;;;;;;;62.08;25.80;;;;;;;-2.67;85.62;101220.88;5111389;27;20434;-54
2021/12/23 04:21:15;;;;;;;72.63;31.02;;;;;;;-2.69;86.06;101216.50;5114231;27;20047;-51
2021/12/23 04:23:42;;;;;;;75.93;32.05;;;;;;;-2.71;86.02;101221.50;5110464;27;20417;-51
2021/12/23 04:26:10;;;;;;;89.05;36.05;;;;;;;-2.70;85.79;101213.09;5118612;27;20043;-53
2021/12/23 04:28:45;;;;;;;230.80;80.85;;;;;;;-2.71;86.15;101201.22;5119315;27;20051;-50
2021/12/23 04:31:13;;;;;;;137.98;49.92;;;;;;;-2.73;85.96;101207.88;5114138;27;20049;-51
2021/12/23 04:33:40;;;;;;;124.63;46.83;;;;;;;-2.74;85.95;101206.13;5116476;27;20051;-51
2021/12/23 04:36:09;;;;;;;101.18;42.17;;;;;;;-2.75;85.77;101204.38;5117757;27;20066;-51
2021/12/23 04:38:39;;;;;;;72.22;32.35;;;;;;;-2.76;85.53;101197.56;5116217;28;20527;-51
2021/12/23 04:41:07;;;;;;;69.60;31.50;;;;;;;-2.77;86.11;101200.88;5112280;28;20121;-51
2021/12/23 04:43:34;;;;;;;82.18;37.95;;;;;;;-2.78;86.10;101194.06;5118519;28;20092;-51
2021/12/23 04:46:01;;;;;;;84.30;38.70;;;;;;;-2.80;86.55;101194.78;5119694;28;20066;-51
2021/12/23 04:48:29;;;;;;;60.20;28.20;;;;;;;-2.82;86.62;101187.09;5117522;28;20047;-52
2021/12/23 04:50:56;;;;;;;44.72;22.45;;;;;;;-2.83;86.52;101180.28;5115457;28;20132;-54
2021/12/23 04:53:23;;;;;;;49.75;23.08;;;;;;;-2.83;86.37;101182.81;5112201;28;20059;-55
2021/12/23 04:55:52;;;;;;;65.15;30.05;;;;;;;-2.87;86.58;101178.38;5113653;28;20059;-52
2021/12/23 04:58:19;;;;;;;63.88;31.95;;;;;;;-2.87;86.31;101178.38;5111083;28;20055;-51
2021/12/23 05:00:49;;;;;;;61.53;31.27;;;;;;;-2.90;86.35;101168.94;5110672;28;20051;-53
2021/12/23 05:03:17;;;;;;;55.70;28.02;;;;;;;-2.90;86.40;101168.06;5118686;28;20534;-51
2021/12/23 05:05:44;;;;;;;44.97;22.13;;;;;;;-2.91;86.37;101158.72;5119883;28;20047;-52
2021/12/23 05:08:11;;;;;;;49.72;22.77;;;;;;;-2.92;86.51;101162.03;5121060;28;20046;-53
2021/12/23 05:10:39;;;;;;;65.05;32.70;;;;;;;-2.94;86.23;101159.41;5116548;27;20059;-50
2021/12/23 05:13:08;;;;;;;50.67;23.88;;;;;;;-2.93;86.04;101155.22;5119504;27;20581;-51
2021/12/23 05:15:35;;;;;;;63.03;31.70;;;;;;;-2.96;86.04;101162.66;5122147;27;20054;-51
2021/12/23 05:18:03;;;;;;;68.22;33.20;;;;;;;-2.97;85.82;101153.31;5116614;27;20059;-50
2021/12/23 05:20:30;;;;;;;55.95;24.38;;;;;;;-2.98;86.23;101144.84;5118217;27;20043;-53
2021/12/23 05:22:58;;;;;;;60.15;27.88;;;;;;;-2.99;86.27;101142.22;5116430;27;20490;-53
2021/12/23 05:25:25;;;;;;;54.00;24.95;;;;;;;-3.01;86.16;101134.53;5119970;27;20048;-52
2021/12/23 05:27:54;;;;;;;47.55;23.25;;;;;;;-3.01;86.24;101133.66;5120770;27;20062;-52
2021/12/23 05:30:24;;;;;;;52.25;23.52;;;;;;;-3.04;85.83;101123.34;5117493;27;20074;-54
2021/12/23 05:32:52;;;;;;;52.25;26.90;;;;;;;-3.06;85.96;101119.88;5117815;27;20096;-51
2021/12/23 05:35:20;;;;;;;51.42;23.23;;;;;;;-3.08;85.89;101126.53;5115246;27;20055;-54
2021/12/23 05:37:48;;;;;;;51.65;24.98;;;;;;;-3.10;85.92;101117.97;5114591;27;20054;-51
2021/12/23 05:40:18;;;;;;;59.08;29.00;;;;;;;-3.12;85.46;101114.44;5117478;27;20503;-52
2021/12/23 05:42:46;;;;;;;60.00;29.00;;;;;;;-3.11;85.77;101116.22;5122769;27;20054;-51
2021/12/23 05:45:15;;;;;;;60.97;27.13;;;;;;;-3.11;85.63;101106.06;5124901;27;20054;-51
2021/12/23 05:47:44;;;;;;;51.70;25.88;;;;;;;-3.12;85.64;101102.66;5120170;27;20054;-54
2021/12/23 05:50:13;;;;;;;58.38;27.08;;;;;;;-3.12;85.56;101099.22;5117476;27;20046;-54
2021/12/23 05:52:41;;;;;;;66.97;31.48;;;;;;;-3.13;85.14;101087.34;5102897;27;20052;-52
2021/12/23 05:55:11;;;;;;;59.55;28.35;;;;;;;-3.17;85.21;101088.84;5093538;27;20787;-54
2021/12/23 05:57:39;;;;;;;68.80;31.75;;;;;;;-3.15;85.15;101083.84;5108756;27;20108;-54
2021/12/23 06:00:10;;;;;;;58.20;26.40;;;;;;;-3.15;85.35;101078.78;5096358;27;20547;-54
2021/12/23 06:02:38;;;;;;;55.42;26.25;;;;;;;-3.18;85.38;101072.75;5107189;27;20047;-55
2021/12/23 06:05:08;;;;;;;46.30;21.15;;;;;;;-3.21;85.40;101070.06;5107647;27;20755;-54
2021/12/23 06:07:35;;;;;;;57.55;22.80;;;;;;;-3.21;85.12;101075.13;5098774;27;20063;-54
2021/12/23 06:10:03;;;;;;;56.15;25.85;;;;;;;-3.22;85.03;101065.78;5095433;27;20048;-52
2021/12/23 06:12:30;;;;;;;57.90;25.58;;;;;;;-3.21;85.15;101059.91;5095106;27;20768;-54
2021/12/23 06:14:57;;;;;;;50.83;23.38;;;;;;;-3.22;84.70;101057.31;5097267;27;20054;-55
2021/12/23 06:17:25;;;;;;;48.97;22.88;;;;;;;-3.24;84.92;101059.75;5093160;28;20542;-53
2021/12/23 06:19:52;;;;;;;55.67;24.95;;;;;;;-3.23;84.89;101061.50;5105312;27;20059;-54
2021/12/23 06:22:20;;;;;;;57.08;25.38;;;;;;;-3.21;85.13;101059.06;5116559;27;20053;-52
2021/12/23 06:24:48;;;;;;;58.08;26.85;;;;;;;-3.17;85.12;101060.94;5101794;27;20051;-53
2021/12/23 06:27:17;;;;;;;57.30;25.38;;;;;;;-3.17;84.98;101056.75;5106610;27;20047;-55
2021/12/23 06:29:44;;;;;;;60.10;23.30;;;;;;;-3.17;84.73;101059.28;5094342;27;20051;-54
2021/12/23 06:32:12;;;;;;;50.40;23.45;;;;;;;-3.14;84.81;101050.09;5095540;27;20429;-55
2021/12/23 06:34:39;;;;;;;49.85;23.73;;;;;;;-3.17;84.74;101051.69;5101709;27;20052;-52
2021/12/23 06:37:07;;;;;;;51.80;21.38;;;;;;;-3.14;84.64;101045.03;5098526;27;20036;-55
2021/12/23 06:39:38;;;;;;;46.25;20.90;;;;;;;-3.15;84.50;101038.22;5098396;27;20138;-52
2021/12/23 06:42:05;;;;;;;58.03;25.92;;;;;;;-3.10;84.59;101047.81;5094812;27;20051;-54
2021/12/23 06:44:33;;;;;;;53.83;23.25;;;;;;;-3.08;84.59;101045.38;5099913;27;20051;-53
2021/12/23 06:47:00;;;;;;;48.97;23.08;;;;;;;-3.07;83.97;101049.66;5095432;27;20039;-52
2021/12/23 06:49:31;;;;;;;53.10;24.00;;;;;;;-3.05;84.71;101048.06;5102272;27;20481;-52
2021/12/23 06:52:00;;;;;;;50.22;22.45;;;;;;;-3.06;84.02;101044.66;5112968;27;20069;-53
2021/12/23 06:54:27;;;;;;;48.25;23.15;;;;;;;-3.05;84.26;101030.31;5113787;27;20066;-53
2021/12/23 06:56:56;;;;;;;50.95;23.52;;;;;;;-3.02;84.72;101026.25;5114504;27;20044;-52
2021/12/23 06:59:24;;;;;;;48.60;21.95;;;;;;;-3.00;84.25;101031.41;5113346;27;20071;-55
2021/12/23 07:01:51;;;;;;;44.35;20.33;;;;;;;-2.99;83.98;101025.53;5119293;27;20059;-54
2021/12/23 07:04:21;;;;;;;47.70;22.63;;;;;;;-2.97;84.05;101021.41;5119258;27;20063;-51
2021/12/23 07:06:57;;;;;;;66.30;28.17;;;;;;;-2.97;83.93;101013.81;5114775;27;20710;-51
2021/12/23 07:09:24;;;;;;;46.67;22.38;;;;;;;-2.96;83.80;101010.47;5118296;27;20043;-54
2021/12/23 07:11:51;;;;;;;43.47;19.83;;;;;;;-2.94;83.52;101014.81;5115762;27;20066;-52
2021/12/23 07:14:20;;;;;;;45.30;21.23;;;;;;;-2.88;84.11;101009.19;5114154;27;20058;-54
2021/12/23 07:16:47;;;;;;;46.80;20.20;;;;;;;-2.83;83.83;101014.50;5117213;27;20078;-51
2021/12/23 07:19:14;;;;;;;54.38;27.00;;;;;;;-2.80;83.45;101002.81;5113611;27;20043;-53
2021/12/23 07:21:41;;;;;;;49.50;22.30;;;;;;;-2.77;83.59;101002.97;5113960;27;20488;-54
2021/12/23 07:24:09;;;;;;;50.88;20.45;;;;;;;-2.75;83.09;100998.84;5114195;27;20042;-53
2021/12/23 07:26:36;;;;;;;42.15;19.10;;;;;;;-2.72;83.07;101003.19;5116060;27;20043;-51
2021/12/23 07:29:03;;;;;;;49.25;21.17;;;;;;;-2.69;83.18;101006.75;5120521;27;20047;-53
2021/12/23 07:31:32;;;;;;;38.88;18.83;;;;;;;-2.65;83.49;101006.09;5124744;27;20047;-54
2021/12/23 07:33:59;;;;;;;44.55;20.10;;;;;;;-2.62;83.21;101003.72;5117449;27;20055;-51
2021/12/23 07:36:27;;;;;;;46.33;20.27;;;;;;;-2.60;82.59;100997.06;5115137;27;20044;-55
2021/12/23 07:38:56;;;;;;;43.60;19.63;;;;;;;-2.60;82.74;100997.06;5113612;27;20053;-53
2021/12/23 07:41:23;;;;;;;44.30;18.73;;;;;;;-2.57;82.92;100992.16;5112862;27;20493;-55
2021/12/23 07:43:58;;;;;;;48.50;19.05;;;;;;;-2.53;83.18;100989.75;5116170;27;20063;-54
2021/12/23 07:46:26;;;;;;;44.92;19.92;;;;;;;-2.52;82.87;100991.50;5116420;27;20077;-52
2021/12/23 07:48:55;;;;;;;43.08;18.88;;;;;;;-2.50;82.80;100983.16;5112786;27;20548;-51
2021/12/23 07:51:22;;;;;;;41.42;18.65;;;;;;;-2.45;82.56;100985.91;5115468;27;20055;-51
2021/12/23 07:53:50;;;;;;;40.92;19.05;;;;;;;-2.42;82.25;100980.97;5113249;27;20047;-51
2021/12/23 07:56:17;;;;;;;41.85;19.65;;;;;;;-2.39;81.96;100979.47;5119233;27;21793;-52
2021/12/23 07:58:44;;;;;;;35.92;19.42;;;;;;;-2.34;82.31;100980.53;5115096;27;20059;-52
2021/12/23 08:01:11;;;;;;;36.13;17.55;;;;;;;-2.31;81.73;100974.75;5110859;27;20438;-51
2021/12/23 08:03:38;;;;;;;39.83;17.42;;;;;;;-2.29;81.54;100971.47;5111220;27;20059;-52
2021/12/23 08:06:07;;;;;;;38.45;17.50;;;;;;;-2.23;81.30;100969.22;5113713;27;20109;-55
2021/12/23 08:08:34;;;;;;;36.80;16.75;;;;;;;-2.19;81.76;100960.06;5116978;27;20040;-51
2021/12/23 08:11:02;;;;;;;50.40;18.08;;;;;;;-2.14;81.32;100963.69;5111858;27;20050;-50
2021/12/23 08:13:30;;;;;;;36.88;17.83;;;;;;;-2.11;81.68;100956.22;5112450;27;20479;-51
2021/12/23 08:16:00;;;;;;;42.17;19.85;;;;;;;-2.07;81.04;100947.97;5111579;27;20055;-53
2021/12/23 08:18:28;;;;;;;33.42;17.98;;;;;;;-2.03;80.87;100949.84;5107109;27;20047;-54
2021/12/23 08:20:55;;;;;;;34.92;17.55;;;;;;;-1.99;81.09;100943.22;5112288;27;20062;-54
2021/12/23 08:23:23;;;;;;;33.88;16.73;;;;;;;-1.93;81.02;100939.28;5116918;27;20051;-52
2021/12/23 08:25:51;;;;;;;34.08;15.93;;;;;;;-1.85;81.63;100936.22;5115760;27;20059;-53
2021/12/23 08:28:18;;;;;;;33.97;16.35;;;;;;;-1.79;81.38;100932.28;5111720;27;20879;-52
2021/12/23 08:30:45;;;;;;;40.33;19.25;;;;;;;-1.71;81.75;100924.97;5110622;27;20212;-52
2021/12/23 08:33:12;;;;;;;34.13;16.33;;;;;;;-1.66;80.77;100924.38;5113809;27;20076;-51
2021/12/23 08:35:39;;;;;;;31.60;16.85;;;;;;;-1.58;81.00;100923.03;5120339;27;20396;-51
2021/12/23 08:38:07;;;;;;;33.10;15.90;;;;;;;-1.51;80.76;100924.19;5116898;27;20446;-49
2021/12/23 08:40:35;;;;;;;30.85;16.00;;;;;;;-1.44;80.46;100916.03;5126257;27;20047;-50
2021/12/23 08:43:03;;;;;;;32.83;15.77;;;;;;;-1.39;81.17;100914.53;5116070;27;20055;-52
2021/12/23 08:45:32;;;;;;;31.95;15.52;;;;;;;-1.34;80.47;100913.06;5118031;27;20053;-53
2021/12/23 08:48:00;;;;;;;32.70;16.50;;;;;;;-1.32;79.85;100910.59;5124406;27;20760;-54
2021/12/23 08:50:29;;;;;;;29.42;14.88;;;;;;;-1.31;79.09;100908.09;5120915;27;20056;-53
2021/12/23 08:52:57;;;;;;;35.72;15.15;;;;;;;-1.27;78.88;100904.00;5122278;27;21503;-50
2021/12/23 08:55:27;;;;;;;27.35;14.43;;;;;;;-1.22;78.71;100897.44;5121956;27;20483;-51
2021/12/23 08:57:56;;;;;;;32.45;15.30;;;;;;;-1.17;78.44;100895.09;5123733;27;20043;-50
2021/12/23 09:00:26;;;;;;;27.55;14.27;;;;;;;-1.11;78.10;100897.88;5117785;27;20127;-51
2021/12/23 09:02:54;;;;;;;29.58;14.85;;;;;;;-1.08;78.69;100891.25;5123271;27;20448;-50
2021/12/23 09:05:21;;;;;;;28.63;14.50;;;;;;;-1.02;78.14;100880.47;5122641;27;20468;-50
2021/12/23 09:07:49;;;;;;;35.25;16.55;;;;;;;-0.96;78.07;100875.63;5129171;27;20043;-52
2021/12/23 09:10:17;;;;;;;76.38;33.25;;;;;;;-0.92;77.38;100872.41;5121912;27;20052;-52
2021/12/23 09:12:46;;;;;;;30.90;16.10;;;;;;;-0.86;77.52;100867.53;5122594;27;20163;-54
2021/12/23 09:15:15;;;;;;;35.67;15.30;;;;;;;-0.88;75.04;100863.19;5123209;27;20055;-51
2021/12/23 09:17:42;;;;;;;30.80;14.63;;;;;;;-0.95;74.20;100857.00;5116966;27;20150;-53
2021/12/23 09:20:11;;;;;;;47.65;23.77;;;;;;;-1.05;73.35;100855.75;5120868;27;20049;-50
2021/12/23 09:22:39;;;;;;;32.38;14.95;;;;;;;-1.09;73.94;100858.09;5121412;27;20051;-52
2021/12/23 09:25:11;;;;;;;26.60;12.63;;;;;;;-1.10;74.05;100852.16;5128171;27;20112;-55
2021/12/23 09:27:44;;;;;;;38.40;18.38;;;;;;;-1.10;74.37;100851.28;5124227;27;20043;-53
2021/12/23 09:33:02;;;;;;;41.20;20.90;;;;;;;-1.11;74.13;100845.31;5135809;27;20510;-53
2021/12/23 09:35:32;;;;;;;31.00;13.95;;;;;;;-1.16;73.52;100840.84;5123109;27;20070;-50
2021/12/23 09:38:00;;;;;;;24.98;11.98;;;;;;;-1.15;73.51;100842.59;5125042;27;20051;-51
2021/12/23 09:40:29;;;;;;;37.90;19.65;;;;;;;-1.13;73.59;100835.91;5133410;27;20040;-51
2021/12/23 09:42:59;;;;;;;32.65;17.27;;;;;;;-1.16;73.07;100830.69;5124951;27;20044;-54
2021/12/23 09:45:27;;;;;;;28.80;14.68;;;;;;;-1.17;73.50;100828.94;5112253;27;20959;-50
2021/12/23 09:47:56;;;;;;;27.50;13.77;;;;;;;-1.16;73.27;100820.50;5120147;27;20043;-50
2021/12/23 09:50:28;;;;;;;36.05;17.13;;;;;;;-1.18;73.40;100811.94;5122742;27;20079;-51
2021/12/23 09:52:58;;;;;;;24.63;11.77;;;;;;;-1.16;73.21;100812.88;5124840;27;20055;-52
2021/12/23 09:55:28;;;;;;;29.35;12.88;;;;;;;-1.21;73.36;100806.75;5113789;27;20078;-53
2021/12/23 09:57:59;;;;;;;25.10;13.38;;;;;;;-1.22;72.82;100805.88;5131448;27;20067;-51
2021/12/23 10:00:29;;;;;;;24.83;13.52;;;;;;;-1.23;73.26;100793.09;5126496;27;20686;-53
2021/12/23 10:02:57;;;;;;;30.52;16.50;;;;;;;-1.24;73.20;100791.34;5128164;27;20054;-52
2021/12/23 10:05:28;;;;;;;24.73;13.65;;;;;;;-1.24;73.31;100782.06;5119394;27;20047;-49
2021/12/23 10:07:56;;;;;;;22.63;12.65;;;;;;;-1.22;72.84;100779.56;5135893;27;20419;-49
2021/12/23 10:10:29;;;;;;;27.55;13.82;;;;;;;-1.22;73.06;100769.41;5120386;27;20495;-52
2021/12/23 10:27:29;;;;;;;26.65;14.10;;;;;;;-1.16;73.57;100744.19;5127200;27;20069;-49
2021/12/23 10:38:23;;;;;;;25.98;13.73;;;;;;;-1.07;74.00;100714.03;5129016;27;20065;-52
2021/12/23 10:40:53;;;;;;;25.38;13.63;;;;;;;-1.04;73.50;100709.03;5128482;27;20089;-55
2021/12/23 10:43:29;;;;;;;25.23;12.27;;;;;;;-1.02;73.48;100697.28;5120816;27;20039;-51
2021/12/23 10:45:58;;;;;;;31.35;15.15;;;;;;;-1.01;73.41;100693.94;5135859;27;20043;-52
2021/12/23 10:48:29;;;;;;;32.10;15.02;;;;;;;-1.00;73.22;100691.44;5129123;27;20039;-52
2021/12/23 10:51:04;;;;;;;53.00;22.77;;;;;;;-1.00;73.26;100680.41;5122257;27;20382;-51
2021/12/23 10:59:18;;;;;;;57.67;23.58;;;;;;;-1.05;73.79;100669.16;5127116;27;21957;-50
2021/12/23 11:02:08;;;;;;;42.10;18.23;;;;;;;-1.06;74.25;100667.41;5112754;27;20101;-53
2021/12/23 11:04:52;;;;;;;31.50;15.00;;;;;;;-1.12;73.91;100664.66;5118301;27;20039;-51
2021/12/23 11:07:24;;;;;;;30.38;14.48;;;;;;;-1.11;74.69;100662.16;5130041;27;20042;-53
2021/12/23 11:10:11;;;;;;;41.53;18.73;;;;;;;-1.10;75.22;100652.84;5120735;27;20118;-53
2021/12/23 11:38:21;;;;;;;29.42;14.93;;;;;;;-1.28;74.79;100605.59;5114616;28;20076;-50
2021/12/23 11:40:53;;;;;;;33.28;14.75;;;;;;;-1.29;75.09;100606.38;5107011;28;20063;-49
2021/12/23 11:43:31;;;;;;;32.13;14.38;;;;;;;-1.32;75.13;100591.03;5117617;27;20051;-50
2021/12/23 11:46:00;;;;;;;31.70;16.13;;;;;;;-1.34;75.69;100597.72;5112646;27;20104;-52
2021/12/23 11:48:28;;;;;;;29.48;14.55;;;;;;;-1.34;75.30;100592.63;5109974;27;20130;-49
2021/12/23 11:51:06;;;;;;;27.45;15.05;;;;;;;-1.32;75.33;100585.94;5109715;28;20047;-50
2021/12/23 11:53:34;;;;;;;36.85;16.83;;;;;;;-1.32;75.47;100580.84;5111105;27;20797;-49
2021/12/23 11:56:05;;;;;;;27.05;14.20;;;;;;;-1.35;75.53;100574.78;5117002;28;20044;-53
2021/12/23 11:58:32;;;;;;;28.42;14.73;;;;;;;-1.34;75.55;100569.75;5116047;28;20131;-52
2021/12/23 12:01:06;;;;;;;35.35;16.25;;;;;;;-1.35;76.30;100565.47;5110926;28;20051;-51
2021/12/23 12:03:39;;;;;;;32.53;15.38;;;;;;;-1.35;76.10;100565.47;5115294;27;20411;-50
2021/12/23 12:06:17;;;;;;;29.77;15.63;;;;;;;-1.37;75.99;100562.00;5116674;27;20050;-50
2021/12/23 12:08:45;;;;;;;33.28;15.55;;;;;;;-1.37;76.33;100556.06;5114506;27;20054;-52
2021/12/23 12:11:18;;;;;;;32.45;15.70;;;;;;;-1.40;76.01;100554.28;5114489;27;20039;-48
2021/12/23 12:13:46;;;;;;;27.55;13.98;;;;;;;-1.40;75.97;100555.94;5111366;27;20043;-50
2021/12/23 12:16:33;;;;;;;29.77;14.43;;;;;;;-1.43;76.23;100556.72;5116726;27;20054;-50
2021/12/23 12:19:02;;;;;;;30.98;14.82;;;;;;;-1.42;76.49;100549.94;5117232;27;20871;-50
2021/12/23 12:21:32;;;;;;;30.38;15.02;;;;;;;-1.43;75.87;100551.63;5109885;27;20035;-48